createdAt,value
2022-11-18T00:00:16.779Z,11.90
2022-11-18T00:02:45.268Z,11.80
2022-11-18T00:05:14.175Z,11.80
2022-11-18T00:07:42.451Z,11.70
2022-11-18T00:10:10.812Z,11.80
2022-11-18T00:12:57.597Z,11.90
2022-11-18T00:15:31.438Z,11.80
2022-11-18T00:17:59.843Z,11.80
2022-11-18T00:20:28.272Z,11.80
2022-11-18T00:22:59.369Z,11.80
2022-11-18T00:25:28.325Z,11.70
2022-11-18T00:27:58.531Z,11.70
2022-11-18T00:30:27.690Z,11.70
2022-11-18T00:33:08.249Z,11.80
2022-11-18T00:35:37.496Z,11.80
2022-11-18T00:38:07.128Z,11.80
2022-11-18T00:40:35.723Z,11.60
2022-11-18T00:43:04.286Z,11.60
2022-11-18T00:45:32.599Z,11.70
2022-11-18T00:48:00.844Z,11.80
2022-11-18T00:50:28.888Z,11.70
2022-11-18T00:52:57.292Z,11.90
2022-11-18T00:55:25.474Z,11.90
2022-11-18T00:57:54.688Z,11.90
2022-11-18T01:00:24.386Z,12.00
2022-11-18T01:02:52.486Z,11.80
2022-11-18T01:05:20.618Z,11.80
2022-11-18T01:07:49.038Z,11.80
2022-11-18T01:10:17.549Z,11.80
2022-11-18T01:13:03.500Z,11.70
2022-11-18T01:15:38.722Z,11.70
2022-11-18T01:18:07.264Z,11.80
2022-11-18T01:20:35.837Z,11.80
2022-11-18T01:23:04.102Z,11.70
2022-11-18T01:25:33.673Z,11.80
2022-11-18T01:28:02.114Z,11.70
2022-11-18T01:30:30.195Z,11.70
2022-11-18T01:33:00.242Z,11.70
2022-11-18T01:35:28.531Z,11.60
2022-11-18T01:37:56.670Z,11.50
2022-11-18T01:40:24.742Z,11.50
2022-11-18T01:42:53.170Z,11.50
2022-11-18T01:45:25.754Z,11.40
2022-11-18T01:47:57.615Z,11.30
2022-11-18T01:50:27.721Z,11.40
2022-11-18T01:52:58.611Z,11.40
2022-11-18T01:55:29.726Z,11.40
2022-11-18T01:58:01.701Z,11.50
2022-11-18T02:00:29.878Z,11.50
2022-11-18T02:02:58.363Z,11.50
2022-11-18T02:05:28.798Z,11.40
2022-11-18T02:07:57.754Z,11.50
2022-11-18T02:10:26.122Z,11.50
2022-11-18T02:12:55.583Z,11.50
2022-11-18T02:15:26.877Z,11.40
2022-11-18T02:17:59.209Z,11.30
2022-11-18T02:20:33.263Z,11.30
2022-11-18T02:23:20.748Z,11.40
2022-11-18T02:25:54.679Z,11.30
2022-11-18T02:28:33.759Z,11.10
2022-11-18T02:31:04.724Z,11.20
2022-11-18T02:33:38.230Z,11.30
2022-11-18T02:36:09.305Z,11.50
2022-11-18T02:38:42.619Z,11.40
2022-11-18T02:41:12.682Z,11.40
2022-11-18T02:43:43.236Z,11.50
2022-11-18T02:46:15.420Z,11.40
2022-11-18T02:48:46.364Z,11.40
2022-11-18T02:51:15.764Z,11.20
2022-11-18T02:53:44.671Z,11.20
2022-11-18T02:56:14.307Z,11.30
2022-11-18T02:58:42.430Z,11.30
2022-11-18T03:01:17.983Z,11.30
2022-11-18T03:03:46.399Z,11.20
2022-11-18T03:06:20.850Z,11.30
2022-11-18T03:08:51.264Z,11.40
2022-11-18T03:11:21.095Z,11.30
2022-11-18T03:14:00.948Z,11.30
2022-11-18T03:16:33.356Z,11.30
2022-11-18T03:19:05.849Z,11.10
2022-11-18T03:21:38.418Z,11.10
2022-11-18T03:24:08.760Z,11.00
2022-11-18T03:26:39.002Z,11.00
2022-11-18T03:29:09.300Z,11.00
2022-11-18T03:31:40.466Z,11.00
2022-11-18T03:34:11.575Z,11.10
2022-11-18T03:36:42.928Z,11.00
2022-11-18T03:39:12.507Z,10.80
2022-11-18T03:41:43.914Z,10.90
2022-11-18T03:44:14.332Z,10.80
2022-11-18T03:46:46.420Z,10.90
2022-11-18T03:49:17.250Z,11.20
2022-11-18T03:51:49.260Z,11.00
2022-11-18T03:54:18.421Z,10.80
2022-11-18T03:56:49.226Z,10.70
2022-11-18T03:59:20.433Z,10.80
2022-11-18T04:01:53.391Z,10.60
2022-11-18T04:04:21.789Z,10.70
2022-11-18T04:06:51.462Z,11.00
2022-11-18T04:09:21.756Z,10.80
2022-11-18T04:12:04.421Z,10.70
2022-11-18T04:14:33.544Z,10.70
2022-11-18T04:17:06.357Z,11.00
2022-11-18T04:19:34.761Z,11.10
2022-11-18T04:22:02.832Z,10.80
2022-11-18T04:24:30.878Z,10.70
2022-11-18T04:26:59.371Z,10.70
2022-11-18T04:29:27.554Z,10.70
2022-11-18T04:31:55.738Z,10.90
2022-11-18T04:34:25.482Z,10.80
2022-11-18T04:36:53.659Z,10.60
2022-11-18T04:39:22.117Z,10.60
2022-11-18T04:41:56.473Z,10.60
2022-11-18T04:44:25.214Z,10.80
2022-11-18T04:46:54.034Z,10.70
2022-11-18T04:49:22.161Z,10.70
2022-11-18T04:51:52.203Z,10.70
2022-11-18T04:54:20.930Z,10.70
2022-11-18T04:56:49.937Z,10.70
2022-11-18T04:59:19.894Z,10.60
2022-11-18T05:01:48.766Z,10.40
2022-11-18T05:04:18.135Z,10.40
2022-11-18T05:06:46.604Z,10.50
2022-11-18T05:09:17.360Z,10.70
2022-11-18T05:12:03.299Z,10.60
2022-11-18T05:14:31.684Z,10.70
2022-11-18T05:17:00.603Z,11.00
2022-11-18T05:19:28.821Z,10.80
2022-11-18T05:21:57.448Z,10.50
2022-11-18T05:24:27.031Z,10.50
2022-11-18T05:26:55.904Z,10.40
2022-11-18T05:29:24.592Z,10.40
2022-11-18T05:31:52.680Z,10.60
2022-11-18T05:34:21.148Z,10.70
2022-11-18T05:36:49.572Z,10.50
2022-11-18T05:39:17.968Z,10.60
2022-11-18T05:42:07.433Z,10.70
2022-11-18T05:44:35.782Z,10.60
2022-11-18T05:47:03.995Z,10.30
2022-11-18T05:49:32.170Z,10.60
2022-11-18T05:52:00.454Z,10.50
2022-11-18T05:54:28.841Z,10.40
2022-11-18T05:56:58.386Z,10.20
2022-11-18T05:59:26.738Z,10.40
2022-11-18T06:01:58.381Z,10.20
2022-11-18T06:04:27.837Z,10.30
2022-11-18T06:07:02.184Z,10.40
2022-11-18T06:09:32.297Z,10.30
2022-11-18T06:12:03.220Z,10.40
2022-11-18T06:14:32.897Z,10.40
2022-11-18T06:17:03.992Z,10.20
2022-11-18T06:19:32.940Z,10.40
2022-11-18T06:22:01.121Z,10.50
2022-11-18T06:24:30.129Z,10.40
2022-11-18T06:26:59.229Z,10.50
2022-11-18T06:29:29.402Z,10.50
2022-11-18T06:31:58.131Z,10.40
2022-11-18T06:34:26.393Z,10.30
2022-11-18T06:36:54.570Z,10.40
2022-11-18T06:39:22.846Z,10.30
2022-11-18T06:41:53.428Z,10.40
2022-11-18T06:44:20.776Z,10.20
2022-11-18T06:46:59.660Z,10.30
2022-11-18T06:49:28.560Z,10.40
2022-11-18T06:51:57.016Z,10.40
2022-11-18T06:54:25.102Z,10.30
2022-11-18T06:56:53.281Z,10.30
2022-11-18T06:59:25.334Z,10.50
2022-11-18T07:01:54.954Z,10.70
2022-11-18T07:04:23.421Z,10.60
2022-11-18T07:06:51.621Z,10.60
2022-11-18T07:09:20.272Z,10.70
2022-11-18T07:11:48.760Z,10.60
2022-11-18T07:14:16.947Z,10.60
2022-11-18T07:16:45.112Z,10.50
2022-11-18T07:19:15.776Z,10.70
2022-11-18T07:21:44.127Z,10.60
2022-11-18T07:24:14.325Z,10.60
2022-11-18T07:26:43.269Z,10.70
2022-11-18T07:29:11.450Z,10.80
2022-11-18T07:31:40.015Z,10.70
2022-11-18T07:34:08.652Z,10.80
2022-11-18T07:36:38.228Z,10.90
2022-11-18T07:39:06.783Z,11.10
2022-11-18T07:41:35.606Z,11.10
2022-11-18T07:44:04.492Z,11.10
2022-11-18T07:46:33.401Z,11.00
2022-11-18T07:49:02.760Z,11.00
2022-11-18T07:51:32.431Z,11.00
2022-11-18T07:54:02.046Z,10.90
2022-11-18T07:56:30.417Z,11.00
2022-11-18T07:58:58.692Z,11.00
2022-11-18T08:01:29.060Z,10.90
2022-11-18T08:03:58.212Z,11.20
2022-11-18T08:06:26.479Z,11.30
2022-11-18T08:08:54.650Z,11.50
2022-11-18T08:11:24.474Z,11.50
2022-11-18T08:13:52.568Z,11.30
2022-11-18T08:16:21.706Z,11.20
2022-11-18T08:18:50.025Z,11.20
2022-11-18T08:21:18.741Z,11.00
2022-11-18T08:23:50.388Z,11.00
2022-11-18T08:26:19.338Z,11.00
2022-11-18T08:28:49.454Z,11.00
2022-11-18T08:31:18.832Z,11.00
2022-11-18T08:33:47.474Z,11.00
2022-11-18T08:36:16.654Z,11.10
2022-11-18T08:38:44.991Z,11.00
2022-11-18T08:41:14.396Z,11.00
2022-11-18T08:43:42.570Z,11.10
2022-11-18T08:46:12.491Z,11.10
2022-11-18T08:48:40.959Z,11.10
2022-11-18T08:51:10.559Z,11.20
2022-11-18T08:53:38.643Z,11.20
2022-11-18T08:56:07.234Z,11.20
2022-11-18T08:58:35.319Z,11.10
2022-11-18T09:01:05.907Z,11.10
2022-11-18T09:03:35.865Z,11.10
2022-11-18T09:06:08.066Z,11.20
2022-11-18T09:08:36.558Z,11.20
2022-11-18T09:11:06.647Z,11.30
2022-11-18T09:13:56.290Z,11.30
2022-11-18T09:16:27.722Z,11.50
2022-11-18T09:19:04.833Z,11.60
2022-11-18T09:21:42.309Z,11.70
2022-11-18T09:24:11.592Z,11.70
2022-11-18T09:26:39.767Z,11.60
2022-11-18T09:29:08.623Z,11.50
2022-11-18T09:31:36.839Z,11.70
2022-11-18T09:34:06.483Z,11.60
2022-11-18T09:36:34.974Z,11.70
2022-11-18T09:39:03.145Z,11.70
2022-11-18T09:41:41.294Z,11.80
2022-11-18T09:44:15.567Z,11.80
2022-11-18T09:46:50.172Z,11.80
2022-11-18T09:49:23.482Z,11.80
2022-11-18T09:51:52.954Z,11.90
2022-11-18T09:54:22.980Z,12.10
2022-11-18T09:56:53.660Z,12.20
2022-11-18T09:59:23.097Z,12.30
2022-11-18T10:01:52.423Z,12.20
2022-11-18T10:04:23.026Z,12.10
2022-11-18T10:06:51.544Z,12.10
2022-11-18T10:09:33.676Z,12.20
2022-11-18T10:12:06.257Z,12.30
2022-11-18T10:14:40.632Z,12.30
2022-11-18T10:17:14.436Z,12.10
2022-11-18T10:19:45.287Z,12.20
2022-11-18T10:22:24.302Z,12.40
2022-11-18T10:24:54.030Z,12.50
2022-11-18T10:27:22.526Z,12.50
2022-11-18T10:29:54.289Z,12.30
2022-11-18T10:32:22.762Z,12.30
2022-11-18T10:34:53.389Z,12.50
2022-11-18T10:37:39.105Z,12.50
2022-11-18T10:40:24.364Z,12.50
2022-11-18T10:42:52.540Z,12.50
2022-11-18T10:45:26.088Z,12.60
2022-11-18T10:48:02.130Z,12.80
2022-11-18T10:50:33.480Z,12.70
2022-11-18T10:53:02.145Z,12.60
2022-11-18T10:55:30.492Z,12.70
2022-11-18T10:58:01.454Z,12.70
2022-11-18T11:00:46.884Z,12.50
2022-11-18T11:03:25.726Z,12.60
2022-11-18T11:06:22.478Z,12.60
2022-11-18T11:08:51.716Z,12.60
2022-11-18T11:11:26.071Z,12.40
2022-11-18T11:13:57.279Z,12.50
2022-11-18T11:16:26.576Z,12.50
2022-11-18T11:18:57.593Z,12.70
2022-11-18T11:21:28.580Z,12.90
2022-11-18T11:23:56.922Z,12.80
2022-11-18T11:29:23.192Z,13.00
2022-11-18T11:31:55.054Z,13.10
2022-11-18T11:34:27.044Z,13.10
2022-11-18T11:36:59.126Z,13.10
2022-11-18T11:39:48.263Z,13.10
2022-11-18T11:42:23.265Z,13.00
2022-11-18T11:44:59.052Z,13.00
2022-11-18T11:47:50.759Z,13.00
2022-11-18T11:50:23.387Z,12.90
2022-11-18T11:52:57.959Z,12.90
2022-11-18T11:55:28.237Z,12.90
2022-11-18T11:58:02.383Z,13.10
2022-11-18T12:00:32.781Z,13.00
2022-11-18T12:03:05.547Z,12.70
2022-11-18T12:05:36.694Z,12.90
2022-11-18T12:08:10.110Z,13.10
2022-11-18T12:10:42.668Z,12.90
2022-11-18T12:13:15.644Z,12.90
2022-11-18T12:15:48.424Z,12.90
2022-11-18T12:18:18.699Z,12.90
2022-11-18T12:20:48.208Z,12.90
2022-11-18T12:23:19.253Z,13.00
2022-11-18T12:26:01.223Z,12.90
2022-11-18T12:28:34.307Z,13.00
2022-11-18T12:31:21.478Z,13.00
2022-11-18T12:33:50.931Z,12.90
2022-11-18T12:36:26.478Z,12.80
2022-11-18T12:38:56.399Z,12.90
2022-11-18T12:42:01.041Z,12.70
2022-11-18T12:44:29.793Z,12.80
2022-11-18T12:46:58.489Z,13.10
2022-11-18T12:49:45.038Z,13.20
2022-11-18T12:52:28.324Z,13.20
2022-11-18T12:54:59.253Z,13.40
2022-11-18T12:57:29.288Z,13.30
2022-11-18T12:59:57.641Z,13.40
2022-11-18T13:02:26.627Z,13.40
2022-11-18T13:05:09.076Z,13.40
2022-11-18T13:07:58.894Z,13.30
2022-11-18T13:10:30.693Z,13.30
2022-11-18T13:12:59.598Z,13.20
2022-11-18T13:15:45.189Z,13.40
2022-11-18T13:18:16.815Z,13.50
2022-11-18T13:20:45.192Z,13.30
2022-11-18T13:23:45.244Z,13.40
2022-11-18T13:26:18.753Z,13.50
2022-11-18T13:29:01.035Z,13.40
2022-11-18T13:31:32.699Z,13.50
2022-11-18T13:34:02.860Z,13.50
2022-11-18T13:36:32.513Z,13.40
2022-11-18T13:39:01.746Z,13.60
2022-11-18T13:41:33.768Z,13.60
2022-11-18T13:44:12.207Z,13.70
2022-11-18T13:46:41.214Z,13.60
2022-11-18T13:49:14.527Z,13.50
2022-11-18T13:51:42.968Z,13.50
2022-11-18T13:54:12.753Z,13.40
2022-11-18T13:56:42.320Z,13.30
2022-11-18T13:59:18.092Z,13.40
2022-11-18T14:01:47.532Z,13.40
2022-11-18T14:04:18.939Z,13.30
2022-11-18T14:06:47.499Z,13.40
2022-11-18T14:09:21.146Z,13.40
2022-11-18T14:12:00.831Z,13.50
2022-11-18T14:14:30.313Z,13.60
2022-11-18T14:17:05.091Z,13.50
2022-11-18T14:19:33.845Z,13.50
2022-11-18T14:22:10.057Z,13.50
2022-11-18T14:24:40.932Z,13.50
2022-11-18T14:27:28.022Z,13.50
2022-11-18T14:29:57.563Z,13.50
2022-11-18T14:32:26.035Z,13.50
2022-11-18T14:34:58.971Z,13.60
2022-11-18T14:37:27.727Z,13.50
2022-11-18T14:39:56.796Z,13.40
2022-11-18T14:42:25.927Z,13.40
2022-11-18T14:44:54.344Z,13.60
2022-11-18T14:47:26.910Z,13.50
2022-11-18T14:49:55.342Z,13.70
2022-11-18T14:52:23.674Z,13.60
2022-11-18T14:54:52.903Z,13.60
2022-11-18T14:57:21.327Z,13.80
2022-11-18T14:59:49.645Z,13.70
2022-11-18T15:02:19.385Z,13.70
2022-11-18T15:04:50.859Z,13.60
2022-11-18T15:07:23.867Z,13.70
2022-11-18T15:09:52.657Z,13.70
2022-11-18T15:12:20.960Z,13.80
2022-11-18T15:14:49.146Z,13.90
2022-11-18T15:17:20.558Z,13.90
2022-11-18T15:19:50.387Z,13.90
2022-11-18T15:22:18.707Z,13.90
2022-11-18T15:24:46.882Z,13.80
2022-11-18T15:27:15.688Z,13.50
2022-11-18T15:29:44.091Z,13.40
2022-11-18T15:32:12.376Z,13.50
2022-11-18T15:34:40.767Z,13.50
2022-11-18T15:37:13.164Z,13.70
2022-11-18T15:39:42.178Z,13.70
2022-11-18T15:42:10.776Z,13.60
2022-11-18T15:44:39.059Z,13.60
2022-11-18T15:47:07.293Z,13.30
2022-11-18T15:49:35.780Z,13.40
2022-11-18T15:52:04.077Z,13.30
2022-11-18T15:54:33.634Z,13.30
2022-11-18T15:57:02.119Z,13.40
2022-11-18T15:59:30.470Z,13.40
2022-11-18T16:01:58.792Z,13.40
2022-11-18T16:04:27.409Z,13.20
2022-11-18T16:06:56.964Z,13.20
2022-11-18T16:09:25.163Z,13.20
2022-11-18T16:12:12.890Z,13.10
2022-11-18T16:14:41.057Z,13.10
2022-11-18T16:17:09.509Z,13.20
2022-11-18T16:19:37.836Z,13.20
2022-11-18T16:22:06.060Z,13.30
2022-11-18T16:24:34.638Z,13.20
2022-11-18T16:27:04.686Z,13.00
2022-11-18T16:29:33.040Z,12.90
2022-11-18T16:32:01.392Z,12.90
2022-11-18T16:34:29.729Z,12.90
2022-11-18T16:36:59.692Z,12.60
2022-11-18T16:39:28.587Z,12.80
2022-11-18T16:42:02.190Z,12.70
2022-11-18T16:44:36.448Z,12.70
2022-11-18T16:47:12.473Z,12.70
2022-11-18T16:49:43.234Z,12.70
2022-11-18T16:52:11.352Z,12.60
2022-11-18T16:54:44.660Z,12.70
2022-11-18T16:57:14.355Z,12.70
2022-11-18T16:59:44.014Z,12.80
2022-11-18T17:02:14.413Z,12.70
2022-11-18T17:04:42.796Z,12.60
2022-11-18T17:07:11.093Z,12.60
2022-11-18T17:09:39.423Z,12.60
2022-11-18T17:12:08.178Z,12.60
2022-11-18T17:14:38.229Z,12.70
2022-11-18T17:17:08.103Z,12.70
2022-11-18T17:19:36.730Z,12.70
2022-11-18T17:22:04.927Z,12.80
2022-11-18T17:24:33.023Z,12.80
2022-11-18T17:27:01.373Z,13.00
2022-11-18T17:29:29.542Z,12.90
2022-11-18T17:31:57.584Z,12.90
2022-11-18T17:34:27.451Z,13.00
2022-11-18T17:36:55.524Z,13.10
2022-11-18T17:39:23.737Z,12.90
2022-11-18T17:42:09.595Z,12.90
2022-11-18T17:44:37.675Z,12.90
2022-11-18T17:47:06.145Z,12.80
2022-11-18T17:49:35.684Z,12.70
2022-11-18T17:52:03.908Z,12.60
2022-11-18T17:54:32.133Z,12.80
2022-11-18T17:57:00.300Z,12.70
2022-11-18T17:59:28.399Z,12.70
2022-11-18T18:01:59.533Z,12.80
2022-11-18T18:04:28.358Z,12.80
2022-11-18T18:06:57.908Z,12.80
2022-11-18T18:09:30.537Z,12.90
2022-11-18T18:11:59.852Z,12.90
2022-11-18T18:14:27.172Z,12.90
2022-11-18T18:16:55.402Z,12.70
2022-11-18T18:19:24.114Z,12.70
2022-11-18T18:21:53.236Z,12.80
2022-11-18T18:24:23.289Z,12.70
2022-11-18T18:26:51.473Z,12.80
2022-11-18T18:29:19.982Z,12.70
2022-11-18T18:31:48.157Z,12.60
2022-11-18T18:34:17.278Z,12.70
2022-11-18T18:36:45.886Z,12.50
2022-11-18T18:39:14.359Z,12.40
2022-11-18T18:41:43.877Z,12.40
2022-11-18T18:44:18.024Z,12.60
2022-11-18T18:46:46.039Z,12.70
2022-11-18T18:49:15.806Z,12.90
2022-11-18T18:51:44.673Z,12.90
2022-11-18T18:54:14.470Z,12.70
2022-11-18T18:56:44.312Z,12.70
2022-11-18T18:59:12.490Z,12.80
2022-11-18T19:01:40.930Z,12.70
2022-11-18T19:04:09.304Z,12.60
2022-11-18T19:09:26.310Z,12.70
2022-11-18T19:12:14.582Z,12.80
2022-11-18T19:14:43.114Z,12.60
2022-11-18T19:17:12.336Z,12.70
2022-11-18T19:19:58.613Z,12.70
2022-11-18T19:22:27.423Z,12.60
2022-11-18T19:24:56.002Z,12.60
2022-11-18T19:27:25.928Z,12.60
2022-11-18T19:29:54.337Z,12.50
2022-11-18T19:32:22.507Z,12.50
2022-11-18T19:34:50.673Z,12.60
2022-11-18T19:37:19.105Z,12.60
2022-11-18T19:39:47.203Z,12.40
2022-11-18T19:42:15.523Z,12.40
2022-11-18T19:44:45.156Z,12.30
2022-11-18T19:47:13.220Z,12.30
2022-11-18T19:49:42.271Z,12.40
2022-11-18T19:52:10.501Z,12.30
2022-11-18T19:54:38.957Z,12.20
2022-11-18T19:57:07.988Z,12.00
2022-11-18T19:59:36.254Z,12.10
2022-11-18T20:02:05.695Z,12.40
2022-11-18T20:04:33.784Z,12.20
2022-11-18T20:07:02.193Z,12.30
2022-11-18T20:09:30.327Z,12.30
2022-11-18T20:11:58.517Z,12.40
2022-11-18T20:14:26.854Z,12.40
2022-11-18T20:16:54.872Z,12.40
2022-11-18T20:19:25.220Z,12.30
2022-11-18T20:21:53.634Z,12.30
2022-11-18T20:24:21.785Z,12.20
2022-11-18T20:26:49.879Z,12.20
2022-11-18T20:29:18.618Z,12.10
2022-11-18T20:31:46.970Z,12.00
2022-11-18T20:34:16.654Z,11.80
2022-11-18T20:36:49.765Z,11.70
2022-11-18T20:39:18.263Z,11.70
2022-11-18T20:42:10.588Z,11.40
2022-11-18T20:44:39.272Z,11.60
2022-11-18T20:47:07.530Z,11.40
2022-11-18T20:49:35.675Z,11.50
2022-11-18T20:52:05.353Z,11.60
2022-11-18T20:54:33.789Z,11.70
2022-11-18T20:57:01.850Z,11.90
2022-11-18T20:59:29.908Z,11.80
2022-11-18T21:01:58.385Z,11.90
2022-11-18T21:04:26.585Z,11.60
2022-11-18T21:06:59.025Z,11.70
2022-11-18T21:09:31.650Z,11.70
2022-11-18T21:11:59.776Z,11.80
2022-11-18T21:14:27.013Z,12.00
2022-11-18T21:16:58.062Z,12.00
2022-11-18T21:19:27.551Z,11.90
2022-11-18T21:21:55.597Z,11.90
2022-11-18T21:24:24.841Z,11.80
2022-11-18T21:26:55.319Z,11.80
2022-11-18T21:29:24.015Z,11.90
2022-11-18T21:31:52.789Z,11.90
2022-11-18T21:34:21.296Z,12.00
2022-11-18T21:36:54.381Z,11.90
2022-11-18T21:39:24.014Z,11.90
2022-11-18T21:41:56.231Z,11.90
2022-11-18T21:44:28.144Z,11.70
2022-11-18T21:46:57.228Z,11.60
2022-11-18T21:49:25.371Z,11.60
2022-11-18T21:51:53.780Z,11.70
2022-11-18T21:54:21.916Z,11.70
2022-11-18T21:56:49.992Z,11.70
2022-11-18T21:59:18.899Z,11.70
2022-11-18T22:01:48.822Z,11.70
2022-11-18T22:04:30.736Z,11.40
2022-11-18T22:06:59.045Z,11.50
2022-11-18T22:09:31.454Z,11.60
2022-11-18T22:12:03.034Z,11.70
2022-11-18T22:14:31.142Z,11.80
2022-11-18T22:17:00.634Z,11.70
2022-11-18T22:19:29.366Z,11.60
2022-11-18T22:21:57.514Z,11.60
2022-11-18T22:24:25.693Z,11.70
2022-11-18T22:26:54.090Z,11.70
2022-11-18T22:29:24.121Z,11.70
2022-11-18T22:31:52.511Z,11.70
2022-11-18T22:34:22.392Z,11.60
2022-11-18T22:36:50.685Z,11.70
2022-11-18T22:39:19.312Z,11.70
2022-11-18T22:42:05.609Z,11.70
2022-11-18T22:44:33.816Z,11.70
2022-11-18T22:47:02.246Z,11.60
2022-11-18T22:49:31.764Z,11.70
2022-11-18T22:52:00.499Z,11.60
2022-11-18T22:54:38.774Z,11.70
2022-11-18T22:57:07.603Z,11.60
2022-11-18T22:59:35.965Z,11.60
2022-11-18T23:02:04.165Z,11.50
2022-11-18T23:04:33.786Z,11.40
2022-11-18T23:07:02.156Z,11.30
2022-11-18T23:09:30.308Z,11.30
2022-11-18T23:12:15.972Z,11.10
2022-11-18T23:14:44.329Z,11.10
2022-11-18T23:17:12.483Z,11.20
2022-11-18T23:19:43.830Z,11.10
2022-11-18T23:22:12.669Z,11.10
2022-11-18T23:24:40.965Z,11.00
2022-11-18T23:27:09.040Z,11.00
2022-11-18T23:29:37.398Z,11.10
2022-11-18T23:32:05.799Z,11.20
2022-11-18T23:34:33.817Z,11.00
2022-11-18T23:37:03.547Z,10.80
2022-11-18T23:39:31.650Z,10.80
2022-11-18T23:41:59.765Z,10.80
2022-11-18T23:44:41.965Z,10.90
2022-11-18T23:47:09.997Z,11.10
2022-11-18T23:49:39.195Z,11.00
2022-11-18T23:52:08.986Z,10.60
2022-11-18T23:54:37.525Z,10.50
2022-11-18T23:57:06.073Z,10.60
2022-11-18T23:59:34.233Z,10.70
